sensor_id;sensor_type;location;lat;lon;timestamp;temperature;humidity
8402;DHT22;4238;48.404;9.498;2023-08-21T04:02:16;18.40;99.90
8402;DHT22;4238;48.404;9.498;2023-08-21T04:04:43;18.30;99.90
8402;DHT22;4238;48.404;9.498;2023-08-21T04:07:12;18.30;99.90
8402;DHT22;4238;48.404;9.498;2023-08-21T04:09:39;18.30;99.90
8402;DHT22;4238;48.404;9.498;2023-08-21T04:12:06;18.20;99.90
8402;DHT22;4238;48.404;9.498;2023-08-21T04:14:33;18.20;99.90
8402;DHT22;4238;48.404;9.498;2023-08-21T04:17:00;18.10;99.90
8402;DHT22;4238;48.404;9.498;2023-08-21T04:19:28;18.10;99.90
8402;DHT22;4238;48.404;9.498;2023-08-21T04:21:58;18.10;99.90
8402;DHT22;4238;48.404;9.498;2023-08-21T04:24:25;18.10;99.90
8402;DHT22;4238;48.404;9.498;2023-08-21T04:26:52;17.90;99.90
8402;DHT22;4238;48.404;9.498;2023-08-21T04:34:32;17.90;99.90
8402;DHT22;4238;48.404;9.498;2023-08-21T04:36:59;18.00;99.90
8402;DHT22;4238;48.404;9.498;2023-08-21T04:39:26;18.10;99.90
8402;DHT22;4238;48.404;9.498;2023-08-21T04:41:53;18.10;99.90
8402;DHT22;4238;48.404;9.498;2023-08-21T04:44:19;18.10;99.90
8402;DHT22;4238;48.404;9.498;2023-08-21T04:46:48;18.10;99.90
8402;DHT22;4238;48.404;9.498;2023-08-21T04:49:15;18.00;99.90
8402;DHT22;4238;48.404;9.498;2023-08-21T04:51:43;18.00;99.90
8402;DHT22;4238;48.404;9.498;2023-08-21T04:54:10;17.90;99.90
8402;DHT22;4238;48.404;9.498;2023-08-21T04:56:37;17.90;99.90
8402;DHT22;4238;48.404;9.498;2023-08-21T04:59:04;17.90;99.90
8402;DHT22;4238;48.404;9.498;2023-08-21T05:01:31;18.00;99.90
8402;DHT22;4238;48.404;9.498;2023-08-21T05:03:57;18.00;99.90
8402;DHT22;4238;48.404;9.498;2023-08-21T05:06:24;18.00;99.90
8402;DHT22;4238;48.404;9.498;2023-08-21T05:08:53;18.10;99.90
8402;DHT22;4238;48.404;9.498;2023-08-21T05:11:19;18.20;99.90
8402;DHT22;4238;48.404;9.498;2023-08-21T05:13:46;18.20;99.90
8402;DHT22;4238;48.404;9.498;2023-08-21T05:16:13;18.30;99.90
8402;DHT22;4238;48.404;9.498;2023-08-21T05:18:40;18.40;99.90
8402;DHT22;4238;48.404;9.498;2023-08-21T05:21:07;18.50;99.90
8402;DHT22;4238;48.404;9.498;2023-08-21T05:23:34;18.60;99.90
8402;DHT22;4238;48.404;9.498;2023-08-21T05:26:02;18.70;99.90
8402;DHT22;4238;48.404;9.498;2023-08-21T05:28:29;18.80;99.90
8402;DHT22;4238;48.404;9.498;2023-08-21T05:30:57;19.00;99.90
8402;DHT22;4238;48.404;9.498;2023-08-21T05:33:24;19.10;99.90
8402;DHT22;4238;48.404;9.498;2023-08-21T05:35:51;19.20;99.90
8402;DHT22;4238;48.404;9.498;2023-08-21T05:38:19;19.40;99.90
8402;DHT22;4238;48.404;9.498;2023-08-21T05:40:45;19.50;99.90
8402;DHT22;4238;48.404;9.498;2023-08-21T05:43:14;19.70;99.90
8402;DHT22;4238;48.404;9.498;2023-08-21T05:45:40;19.80;99.90
8402;DHT22;4238;48.404;9.498;2023-08-21T05:48:07;20.00;99.90
8402;DHT22;4238;48.404;9.498;2023-08-21T05:50:34;20.10;99.90
8402;DHT22;4238;48.404;9.498;2023-08-21T05:53:02;20.30;99.90
8402;DHT22;4238;48.404;9.498;2023-08-21T05:55:29;20.40;99.90
8402;DHT22;4238;48.404;9.498;2023-08-21T05:57:56;20.50;99.90
8402;DHT22;4238;48.404;9.498;2023-08-21T06:00:24;20.70;99.90
8402;DHT22;4238;48.404;9.498;2023-08-21T06:02:51;20.80;99.90
8402;DHT22;4238;48.404;9.498;2023-08-21T06:05:18;21.00;99.90
8402;DHT22;4238;48.404;9.498;2023-08-21T06:07:45;21.10;99.90
8402;DHT22;4238;48.404;9.498;2023-08-21T06:10:12;21.30;99.90
8402;DHT22;4238;48.404;9.498;2023-08-21T06:12:40;21.50;99.90
8402;DHT22;4238;48.404;9.498;2023-08-21T06:15:08;21.70;99.90
8402;DHT22;4238;48.404;9.498;2023-08-21T06:17:37;21.90;99.90
8402;DHT22;4238;48.404;9.498;2023-08-21T06:20:05;22.00;99.90
8402;DHT22;4238;48.404;9.498;2023-08-21T06:22:34;22.20;99.90
8402;DHT22;4238;48.404;9.498;2023-08-21T06:25:01;22.30;99.90
8402;DHT22;4238;48.404;9.498;2023-08-21T06:27:28;22.50;99.90
8402;DHT22;4238;48.404;9.498;2023-08-21T06:29:55;22.70;99.90
8402;DHT22;4238;48.404;9.498;2023-08-21T06:32:22;23.00;91.60
8402;DHT22;4238;48.404;9.498;2023-08-21T06:34:50;23.10;89.00
8402;DHT22;4238;48.404;9.498;2023-08-21T06:37:17;23.20;85.40
8402;DHT22;4238;48.404;9.498;2023-08-21T06:39:44;23.30;87.50
8402;DHT22;4238;48.404;9.498;2023-08-21T06:42:11;23.50;85.00
8402;DHT22;4238;48.404;9.498;2023-08-21T06:44:38;23.60;67.70
8402;DHT22;4238;48.404;9.498;2023-08-21T06:47:04;23.70;77.70
8402;DHT22;4238;48.404;9.498;2023-08-21T06:49:31;23.90;68.80
8402;DHT22;4238;48.404;9.498;2023-08-21T06:52:00;24.00;58.40
8402;DHT22;4238;48.404;9.498;2023-08-21T06:54:27;24.10;57.70
8402;DHT22;4238;48.404;9.498;2023-08-21T06:56:53;24.20;56.70
8402;DHT22;4238;48.404;9.498;2023-08-21T06:59:20;24.50;40.30
8402;DHT22;4238;48.404;9.498;2023-08-21T07:01:47;24.50;46.10
8402;DHT22;4238;48.404;9.498;2023-08-21T07:04:14;24.70;52.80
8402;DHT22;4238;48.404;9.498;2023-08-21T07:06:41;24.90;56.80
8402;DHT22;4238;48.404;9.498;2023-08-21T07:09:09;25.00;31.50
8402;DHT22;4238;48.404;9.498;2023-08-21T07:11:36;25.20;37.70
8402;DHT22;4238;48.404;9.498;2023-08-21T07:14:03;25.30;32.10
8402;DHT22;4238;48.404;9.498;2023-08-21T07:16:30;25.40;32.30
8402;DHT22;4238;48.404;9.498;2023-08-21T07:18:57;25.60;37.90
8402;DHT22;4238;48.404;9.498;2023-08-21T07:21:23;25.70;20.60
8402;DHT22;4238;48.404;9.498;2023-08-21T07:23:50;25.90;13.80
8402;DHT22;4238;48.404;9.498;2023-08-21T07:26:19;26.10;11.10
8402;DHT22;4238;48.404;9.498;2023-08-21T07:28:46;26.20;5.70
8402;DHT22;4238;48.404;9.498;2023-08-21T07:31:12;26.50;10.50
8402;DHT22;4238;48.404;9.498;2023-08-21T07:33:39;26.70;16.80
8402;DHT22;4238;48.404;9.498;2023-08-21T07:36:06;26.90;1.00
8402;DHT22;4238;48.404;9.498;2023-08-21T07:38:33;27.00;1.00
8402;DHT22;4238;48.404;9.498;2023-08-21T07:41:04;27.10;1.00
8402;DHT22;4238;48.404;9.498;2023-08-21T07:43:34;27.20;1.00
8402;DHT22;4238;48.404;9.498;2023-08-21T07:46:04;27.20;1.00
8402;DHT22;4238;48.404;9.498;2023-08-21T07:48:31;27.40;1.00
8402;DHT22;4238;48.404;9.498;2023-08-21T07:50:58;27.50;1.00
8402;DHT22;4238;48.404;9.498;2023-08-21T07:53:25;27.70;1.00
8402;DHT22;4238;48.404;9.498;2023-08-21T07:55:52;27.90;1.00
8402;DHT22;4238;48.404;9.498;2023-08-21T07:58:19;28.00;1.00
8402;DHT22;4238;48.404;9.498;2023-08-21T08:00:48;28.20;1.00
8402;DHT22;4238;48.404;9.498;2023-08-21T08:03:15;28.30;1.00
8402;DHT22;4238;48.404;9.498;2023-08-21T08:05:42;28.40;1.00
8402;DHT22;4238;48.404;9.498;2023-08-21T08:08:09;28.50;1.00
8402;DHT22;4238;48.404;9.498;2023-08-21T08:10:37;28.70;1.00
8402;DHT22;4238;48.404;9.498;2023-08-21T08:13:06;29.00;1.00
8402;DHT22;4238;48.404;9.498;2023-08-21T08:15:33;29.10;1.00
8402;DHT22;4238;48.404;9.498;2023-08-21T08:18:03;29.20;1.00
8402;DHT22;4238;48.404;9.498;2023-08-21T08:20:31;29.30;1.00
8402;DHT22;4238;48.404;9.498;2023-08-21T08:22:58;29.50;99.90
8402;DHT22;4238;48.404;9.498;2023-08-21T08:25:25;29.60;99.90
8402;DHT22;4238;48.404;9.498;2023-08-21T08:27:52;29.70;82.90
8402;DHT22;4238;48.404;9.498;2023-08-21T08:30:19;29.90;1.00
8402;DHT22;4238;48.404;9.498;2023-08-21T08:32:45;30.00;1.00
8402;DHT22;4238;48.404;9.498;2023-08-21T08:35:14;30.30;24.10
8402;DHT22;4238;48.404;9.498;2023-08-21T08:37:41;30.50;99.90
8402;DHT22;4238;48.404;9.498;2023-08-21T08:40:09;30.40;1.00
8402;DHT22;4238;48.404;9.498;2023-08-21T08:42:36;30.50;99.90
8402;DHT22;4238;48.404;9.498;2023-08-21T08:45:04;30.60;46.90
8402;DHT22;4238;48.404;9.498;2023-08-21T08:47:32;30.80;99.90
8402;DHT22;4238;48.404;9.498;2023-08-21T08:50:01;30.80;99.90
8402;DHT22;4238;48.404;9.498;2023-08-21T08:52:33;30.90;42.10
8402;DHT22;4238;48.404;9.498;2023-08-21T08:55:01;31.10;1.00
8402;DHT22;4238;48.404;9.498;2023-08-21T08:57:28;30.90;99.90
8402;DHT22;4238;48.404;9.498;2023-08-21T08:59:55;30.70;1.00
8402;DHT22;4238;48.404;9.498;2023-08-21T09:02:24;30.40;99.90
8402;DHT22;4238;48.404;9.498;2023-08-21T09:04:51;30.30;1.00
8402;DHT22;4238;48.404;9.498;2023-08-21T09:07:18;30.50;99.90
8402;DHT22;4238;48.404;9.498;2023-08-21T09:09:48;30.80;1.00
8402;DHT22;4238;48.404;9.498;2023-08-21T09:12:17;31.20;99.90
8402;DHT22;4238;48.404;9.498;2023-08-21T09:14:44;31.40;1.00
8402;DHT22;4238;48.404;9.498;2023-08-21T09:17:12;31.40;99.90
8402;DHT22;4238;48.404;9.498;2023-08-21T09:19:39;31.50;99.90
8402;DHT22;4238;48.404;9.498;2023-08-21T09:22:10;31.70;58.50
8402;DHT22;4238;48.404;9.498;2023-08-21T09:24:38;31.80;1.00
8402;DHT22;4238;48.404;9.498;2023-08-21T09:27:13;32.20;36.40
8402;DHT22;4238;48.404;9.498;2023-08-21T09:29:41;32.20;34.50
8402;DHT22;4238;48.404;9.498;2023-08-21T09:32:08;32.20;99.90
8402;DHT22;4238;48.404;9.498;2023-08-21T09:34:36;32.60;99.90
8402;DHT22;4238;48.404;9.498;2023-08-21T09:37:05;32.60;99.90
8402;DHT22;4238;48.404;9.498;2023-08-21T09:39:34;32.60;99.90
8402;DHT22;4238;48.404;9.498;2023-08-21T09:42:01;32.70;81.50
8402;DHT22;4238;48.404;9.498;2023-08-21T09:44:35;32.80;99.90
8402;DHT22;4238;48.404;9.498;2023-08-21T09:47:02;32.60;1.00
8402;DHT22;4238;48.404;9.498;2023-08-21T09:49:29;32.60;16.20
8402;DHT22;4238;48.404;9.498;2023-08-21T09:51:57;32.80;99.90
8402;DHT22;4238;48.404;9.498;2023-08-21T09:54:24;32.60;99.90
8402;DHT22;4238;48.404;9.498;2023-08-21T09:56:51;32.30;99.90
8402;DHT22;4238;48.404;9.498;2023-08-21T09:59:19;32.60;99.90
8402;DHT22;4238;48.404;9.498;2023-08-21T10:01:49;33.00;40.20
8402;DHT22;4238;48.404;9.498;2023-08-21T10:04:17;33.10;99.90
8402;DHT22;4238;48.404;9.498;2023-08-21T10:06:45;32.80;1.00
8402;DHT22;4238;48.404;9.498;2023-08-21T10:09:13;32.70;99.90
8402;DHT22;4238;48.404;9.498;2023-08-21T10:11:42;32.10;99.90
8402;DHT22;4238;48.404;9.498;2023-08-21T10:14:10;31.50;99.90
8402;DHT22;4238;48.404;9.498;2023-08-21T10:16:37;31.70;1.00
8402;DHT22;4238;48.404;9.498;2023-08-21T10:19:06;31.60;1.00
8402;DHT22;4238;48.404;9.498;2023-08-21T10:21:35;31.60;1.00
8402;DHT22;4238;48.404;9.498;2023-08-21T10:24:03;31.80;1.00
8402;DHT22;4238;48.404;9.498;2023-08-21T10:26:30;31.60;1.00
8402;DHT22;4238;48.404;9.498;2023-08-21T10:28:59;31.60;1.00
8402;DHT22;4238;48.404;9.498;2023-08-21T10:31:32;31.80;1.00
8402;DHT22;4238;48.404;9.498;2023-08-21T10:34:01;32.30;1.00
8402;DHT22;4238;48.404;9.498;2023-08-21T10:37:03;32.60;1.00
8402;DHT22;4238;48.404;9.498;2023-08-21T10:39:34;32.60;99.90
8402;DHT22;4238;48.404;9.498;2023-08-21T10:42:05;32.40;1.00
8402;DHT22;4238;48.404;9.498;2023-08-21T10:44:37;32.00;99.90
8402;DHT22;4238;48.404;9.498;2023-08-21T10:47:14;31.60;99.90
8402;DHT22;4238;48.404;9.498;2023-08-21T10:49:43;31.60;1.00
8402;DHT22;4238;48.404;9.498;2023-08-21T10:52:11;31.90;1.00
8402;DHT22;4238;48.404;9.498;2023-08-21T10:54:46;32.20;1.00
8402;DHT22;4238;48.404;9.498;2023-08-21T10:57:12;32.40;37.40
8402;DHT22;4238;48.404;9.498;2023-08-21T10:59:49;32.80;99.90
8402;DHT22;4238;48.404;9.498;2023-08-21T11:02:16;33.10;1.00
8402;DHT22;4238;48.404;9.498;2023-08-21T11:04:43;33.60;99.90
8402;DHT22;4238;48.404;9.498;2023-08-21T11:07:12;33.70;1.00
8402;DHT22;4238;48.404;9.498;2023-08-21T11:09:39;33.70;1.00
8402;DHT22;4238;48.404;9.498;2023-08-21T11:12:08;33.60;1.00
8402;DHT22;4238;48.404;9.498;2023-08-21T11:14:35;33.40;1.00
8402;DHT22;4238;48.404;9.498;2023-08-21T11:17:02;33.10;1.00
8402;DHT22;4238;48.404;9.498;2023-08-21T11:19:30;32.70;1.00
8402;DHT22;4238;48.404;9.498;2023-08-21T11:21:58;32.30;1.00
8402;DHT22;4238;48.404;9.498;2023-08-21T11:24:31;32.00;59.50
8402;DHT22;4238;48.404;9.498;2023-08-21T11:27:05;31.70;1.00
8402;DHT22;4238;48.404;9.498;2023-08-21T11:29:36;31.60;99.90
8402;DHT22;4238;48.404;9.498;2023-08-21T11:32:05;32.10;99.90
8402;DHT22;4238;48.404;9.498;2023-08-21T11:34:33;32.40;99.90
8402;DHT22;4238;48.404;9.498;2023-08-21T11:37:01;32.30;1.00
8402;DHT22;4238;48.404;9.498;2023-08-21T11:39:43;32.10;99.90
8402;DHT22;4238;48.404;9.498;2023-08-21T11:42:11;32.30;99.90
8402;DHT22;4238;48.404;9.498;2023-08-21T11:44:49;32.50;60.40
8402;DHT22;4238;48.404;9.498;2023-08-21T11:47:18;32.40;1.00
8402;DHT22;4238;48.404;9.498;2023-08-21T11:49:45;32.10;1.00
8402;DHT22;4238;48.404;9.498;2023-08-21T11:52:18;32.60;1.00
8402;DHT22;4238;48.404;9.498;2023-08-21T11:54:48;32.80;1.00
8402;DHT22;4238;48.404;9.498;2023-08-21T11:57:16;33.10;1.00
8402;DHT22;4238;48.404;9.498;2023-08-21T11:59:43;33.10;1.00
8402;DHT22;4238;48.404;9.498;2023-08-21T12:02:17;33.30;99.90
8402;DHT22;4238;48.404;9.498;2023-08-21T12:04:45;33.50;1.00
8402;DHT22;4238;48.404;9.498;2023-08-21T12:07:13;33.40;1.00
8402;DHT22;4238;48.404;9.498;2023-08-21T12:09:45;33.10;1.00
8402;DHT22;4238;48.404;9.498;2023-08-21T12:12:14;33.30;1.00
8402;DHT22;4238;48.404;9.498;2023-08-21T12:14:41;33.10;1.00
8402;DHT22;4238;48.404;9.498;2023-08-21T12:17:07;33.20;1.00
8402;DHT22;4238;48.404;9.498;2023-08-21T12:19:34;33.30;1.00
8402;DHT22;4238;48.404;9.498;2023-08-21T12:22:02;33.40;1.00
8402;DHT22;4238;48.404;9.498;2023-08-21T12:24:29;33.60;1.00
8402;DHT22;4238;48.404;9.498;2023-08-21T12:26:56;33.90;99.90
8402;DHT22;4238;48.404;9.498;2023-08-21T12:29:24;33.80;99.90
8402;DHT22;4238;48.404;9.498;2023-08-21T12:31:51;33.60;99.90
8402;DHT22;4238;48.404;9.498;2023-08-21T12:34:18;33.30;99.90
8402;DHT22;4238;48.404;9.498;2023-08-21T12:36:45;32.60;99.90
8402;DHT22;4238;48.404;9.498;2023-08-21T12:39:12;32.70;1.00
8402;DHT22;4238;48.404;9.498;2023-08-21T12:41:41;32.90;1.00
8402;DHT22;4238;48.404;9.498;2023-08-21T12:44:08;33.40;1.00
8402;DHT22;4238;48.404;9.498;2023-08-21T12:46:36;33.70;1.00
8402;DHT22;4238;48.404;9.498;2023-08-21T12:49:03;33.80;1.00
8402;DHT22;4238;48.404;9.498;2023-08-21T12:51:30;33.20;99.90
8402;DHT22;4238;48.404;9.498;2023-08-21T12:53:57;33.20;99.90
8402;DHT22;4238;48.404;9.498;2023-08-21T12:56:24;33.60;99.90
8402;DHT22;4238;48.404;9.498;2023-08-21T12:58:51;33.40;99.90
8402;DHT22;4238;48.404;9.498;2023-08-21T13:01:18;33.70;99.90
8402;DHT22;4238;48.404;9.498;2023-08-21T13:03:47;33.70;99.90
8402;DHT22;4238;48.404;9.498;2023-08-21T13:06:14;33.70;99.90
8402;DHT22;4238;48.404;9.498;2023-08-21T13:08:41;33.80;99.90
8402;DHT22;4238;48.404;9.498;2023-08-21T13:11:08;34.00;99.90
8402;DHT22;4238;48.404;9.498;2023-08-21T13:13:35;33.40;99.90
8402;DHT22;4238;48.404;9.498;2023-08-21T13:16:02;32.70;99.90
8402;DHT22;4238;48.404;9.498;2023-08-21T13:18:30;32.40;1.00
8402;DHT22;4238;48.404;9.498;2023-08-21T13:20:58;32.00;1.00
8402;DHT22;4238;48.404;9.498;2023-08-21T13:23:25;31.70;1.00
8402;DHT22;4238;48.404;9.498;2023-08-21T13:25:52;31.50;1.00
8402;DHT22;4238;48.404;9.498;2023-08-21T13:28:19;31.30;1.00
8402;DHT22;4238;48.404;9.498;2023-08-21T13:30:45;31.20;54.50
8402;DHT22;4238;48.404;9.498;2023-08-21T13:33:14;31.10;1.00
8402;DHT22;4238;48.404;9.498;2023-08-21T13:35:43;31.30;1.00
8402;DHT22;4238;48.404;9.498;2023-08-21T13:38:12;31.70;96.60
8402;DHT22;4238;48.404;9.498;2023-08-21T13:40:39;32.30;1.00
8402;DHT22;4238;48.404;9.498;2023-08-21T13:43:07;32.70;1.00
8402;DHT22;4238;48.404;9.498;2023-08-21T13:45:35;33.10;1.00
8402;DHT22;4238;48.404;9.498;2023-08-21T13:48:03;33.30;99.90
8402;DHT22;4238;48.404;9.498;2023-08-21T13:50:30;33.40;1.00
8402;DHT22;4238;48.404;9.498;2023-08-21T13:52:57;33.10;1.00
8402;DHT22;4238;48.404;9.498;2023-08-21T13:55:26;32.40;1.00
8402;DHT22;4238;48.404;9.498;2023-08-21T13:57:52;31.90;1.00
8402;DHT22;4238;48.404;9.498;2023-08-21T14:00:19;31.40;1.00
8402;DHT22;4238;48.404;9.498;2023-08-21T14:02:47;31.10;99.90
8402;DHT22;4238;48.404;9.498;2023-08-21T14:05:14;31.10;99.90
8402;DHT22;4238;48.404;9.498;2023-08-21T14:07:41;30.70;99.90
8402;DHT22;4238;48.404;9.498;2023-08-21T14:10:08;30.50;1.00
8402;DHT22;4238;48.404;9.498;2023-08-21T14:12:37;30.30;1.00
8402;DHT22;4238;48.404;9.498;2023-08-21T14:15:05;30.30;1.00
8402;DHT22;4238;48.404;9.498;2023-08-21T14:17:32;30.70;1.00
8402;DHT22;4238;48.404;9.498;2023-08-21T14:19:59;31.10;1.00
8402;DHT22;4238;48.404;9.498;2023-08-21T14:22:26;31.30;80.60
8402;DHT22;4238;48.404;9.498;2023-08-21T14:24:52;31.70;1.00
8402;DHT22;4238;48.404;9.498;2023-08-21T14:27:19;31.90;1.00
8402;DHT22;4238;48.404;9.498;2023-08-21T14:29:47;32.00;99.90
8402;DHT22;4238;48.404;9.498;2023-08-21T14:32:16;32.00;99.90
8402;DHT22;4238;48.404;9.498;2023-08-21T14:34:43;31.90;39.70
8402;DHT22;4238;48.404;9.498;2023-08-21T14:37:11;31.50;99.90
8402;DHT22;4238;48.404;9.498;2023-08-21T14:39:41;31.40;99.90
8402;DHT22;4238;48.404;9.498;2023-08-21T14:42:08;31.50;99.90
8402;DHT22;4238;48.404;9.498;2023-08-21T14:44:35;31.60;99.90
8402;DHT22;4238;48.404;9.498;2023-08-21T14:47:03;31.40;99.90
8402;DHT22;4238;48.404;9.498;2023-08-21T14:49:30;30.90;99.90
8402;DHT22;4238;48.404;9.498;2023-08-21T14:51:57;30.80;1.00
8402;DHT22;4238;48.404;9.498;2023-08-21T14:54:24;30.70;99.90
8402;DHT22;4238;48.404;9.498;2023-08-21T14:56:51;30.80;99.90
8402;DHT22;4238;48.404;9.498;2023-08-21T14:59:18;31.10;99.90
8402;DHT22;4238;48.404;9.498;2023-08-21T15:01:45;31.20;99.90
8402;DHT22;4238;48.404;9.498;2023-08-21T15:04:13;31.10;1.00
8402;DHT22;4238;48.404;9.498;2023-08-21T15:06:40;31.20;99.90
8402;DHT22;4238;48.404;9.498;2023-08-21T15:09:08;31.30;1.00
8402;DHT22;4238;48.404;9.498;2023-08-21T15:11:35;31.50;99.90
8402;DHT22;4238;48.404;9.498;2023-08-21T15:14:02;31.50;1.00
8402;DHT22;4238;48.404;9.498;2023-08-21T15:16:30;31.60;1.00
8402;DHT22;4238;48.404;9.498;2023-08-21T15:18:56;31.40;1.00
8402;DHT22;4238;48.404;9.498;2023-08-21T15:21:25;31.60;1.00
8402;DHT22;4238;48.404;9.498;2023-08-21T15:23:52;31.60;1.00
8402;DHT22;4238;48.404;9.498;2023-08-21T15:26:18;31.70;1.00
8402;DHT22;4238;48.404;9.498;2023-08-21T15:28:45;31.60;1.00
8402;DHT22;4238;48.404;9.498;2023-08-21T15:31:12;31.60;1.00
8402;DHT22;4238;48.404;9.498;2023-08-21T15:33:39;31.60;99.90
8402;DHT22;4238;48.404;9.498;2023-08-21T15:36:06;31.30;99.90
8402;DHT22;4238;48.404;9.498;2023-08-21T15:38:34;31.30;99.90
8402;DHT22;4238;48.404;9.498;2023-08-21T15:41:01;31.20;99.90
8402;DHT22;4238;48.404;9.498;2023-08-21T15:43:28;31.20;99.90
8402;DHT22;4238;48.404;9.498;2023-08-21T15:45:55;31.10;99.90
8402;DHT22;4238;48.404;9.498;2023-08-21T15:48:21;30.90;99.90
8402;DHT22;4238;48.404;9.498;2023-08-21T15:50:48;30.90;99.90
8402;DHT22;4238;48.404;9.498;2023-08-21T15:53:15;30.90;1.00
8402;DHT22;4238;48.404;9.498;2023-08-21T15:55:44;30.70;1.00
8402;DHT22;4238;48.404;9.498;2023-08-21T15:58:11;30.50;1.00
8402;DHT22;4238;48.404;9.498;2023-08-21T16:00:38;30.10;1.00
8402;DHT22;4238;48.404;9.498;2023-08-21T16:03:05;29.90;1.00
8402;DHT22;4238;48.404;9.498;2023-08-21T16:05:32;29.80;1.00
8402;DHT22;4238;48.404;9.498;2023-08-21T16:07:59;30.00;1.00
8402;DHT22;4238;48.404;9.498;2023-08-21T16:10:25;30.10;99.90
8402;DHT22;4238;48.404;9.498;2023-08-21T16:12:54;30.00;1.00
8402;DHT22;4238;48.404;9.498;2023-08-21T16:15:21;30.10;99.90
8402;DHT22;4238;48.404;9.498;2023-08-21T16:17:48;30.10;1.00
8402;DHT22;4238;48.404;9.498;2023-08-21T16:20:16;29.90;1.00
8402;DHT22;4238;48.404;9.498;2023-08-21T16:22:43;29.90;99.90
8402;DHT22;4238;48.404;9.498;2023-08-21T16:25:10;29.70;99.90
8402;DHT22;4238;48.404;9.498;2023-08-21T16:27:38;29.60;1.00
8402;DHT22;4238;48.404;9.498;2023-08-21T16:30:07;29.60;99.90
8402;DHT22;4238;48.404;9.498;2023-08-21T16:32:34;29.50;99.90
8402;DHT22;4238;48.404;9.498;2023-08-21T16:35:02;29.30;1.00
8402;DHT22;4238;48.404;9.498;2023-08-21T16:37:29;29.20;1.00
8402;DHT22;4238;48.404;9.498;2023-08-21T16:39:56;29.00;99.90
8402;DHT22;4238;48.404;9.498;2023-08-21T16:42:23;28.80;99.90
8402;DHT22;4238;48.404;9.498;2023-08-21T16:44:49;28.70;90.20
8402;DHT22;4238;48.404;9.498;2023-08-21T16:47:18;28.60;99.90
8402;DHT22;4238;48.404;9.498;2023-08-21T16:49:45;28.50;99.90
8402;DHT22;4238;48.404;9.498;2023-08-21T16:52:12;28.50;1.00
8402;DHT22;4238;48.404;9.498;2023-08-21T16:54:38;28.30;99.90
8402;DHT22;4238;48.404;9.498;2023-08-21T16:57:05;28.20;1.00
8402;DHT22;4238;48.404;9.498;2023-08-21T16:59:32;28.20;99.90
8402;DHT22;4238;48.404;9.498;2023-08-21T17:01:59;28.20;1.00
8402;DHT22;4238;48.404;9.498;2023-08-21T17:04:27;28.20;25.80
8402;DHT22;4238;48.404;9.498;2023-08-21T17:06:54;28.10;1.00
8402;DHT22;4238;48.404;9.498;2023-08-21T17:09:21;28.10;99.90
8402;DHT22;4238;48.404;9.498;2023-08-21T17:11:55;28.00;99.90
8402;DHT22;4238;48.404;9.498;2023-08-21T17:14:22;28.00;21.80
8402;DHT22;4238;48.404;9.498;2023-08-21T17:16:48;27.80;1.00
8402;DHT22;4238;48.404;9.498;2023-08-21T17:19:15;27.80;99.90
8402;DHT22;4238;48.404;9.498;2023-08-21T17:21:44;27.70;1.00
8402;DHT22;4238;48.404;9.498;2023-08-21T17:24:10;27.50;1.00
8402;DHT22;4238;48.404;9.498;2023-08-21T17:26:37;27.30;1.00
8402;DHT22;4238;48.404;9.498;2023-08-21T17:29:04;27.20;1.00
8402;DHT22;4238;48.404;9.498;2023-08-21T17:31:31;27.10;1.00
8402;DHT22;4238;48.404;9.498;2023-08-21T17:33:58;26.90;1.00
8402;DHT22;4238;48.404;9.498;2023-08-21T17:36:25;26.90;1.00
8402;DHT22;4238;48.404;9.498;2023-08-21T17:38:53;26.80;1.00
8402;DHT22;4238;48.404;9.498;2023-08-21T17:41:20;26.80;1.00
8402;DHT22;4238;48.404;9.498;2023-08-21T17:43:47;26.80;1.00
8402;DHT22;4238;48.404;9.498;2023-08-21T17:46:13;26.80;1.00
8402;DHT22;4238;48.404;9.498;2023-08-21T17:48:42;26.80;1.00
8402;DHT22;4238;48.404;9.498;2023-08-21T17:51:09;26.90;1.00
8402;DHT22;4238;48.404;9.498;2023-08-21T17:53:37;26.90;1.00
8402;DHT22;4238;48.404;9.498;2023-08-21T17:56:05;26.90;1.00
8402;DHT22;4238;48.404;9.498;2023-08-21T17:58:33;26.90;1.00
8402;DHT22;4238;48.404;9.498;2023-08-21T18:01:00;26.80;1.00
8402;DHT22;4238;48.404;9.498;2023-08-21T18:03:27;26.70;1.00
8402;DHT22;4238;48.404;9.498;2023-08-21T18:05:54;26.60;1.00
8402;DHT22;4238;48.404;9.498;2023-08-21T18:08:21;26.50;1.00
8402;DHT22;4238;48.404;9.498;2023-08-21T18:10:48;26.50;1.00
8402;DHT22;4238;48.404;9.498;2023-08-21T18:13:17;26.40;1.00
8402;DHT22;4238;48.404;9.498;2023-08-21T18:15:47;26.20;1.00
8402;DHT22;4238;48.404;9.498;2023-08-21T18:18:14;26.00;1.00
8402;DHT22;4238;48.404;9.498;2023-08-21T18:20:48;25.90;1.00
8402;DHT22;4238;48.404;9.498;2023-08-21T18:23:17;26.00;1.00
8402;DHT22;4238;48.404;9.498;2023-08-21T18:25:44;26.10;1.00
8402;DHT22;4238;48.404;9.498;2023-08-21T18:28:11;26.10;1.00
8402;DHT22;4238;48.404;9.498;2023-08-21T18:30:41;25.70;1.00
8402;DHT22;4238;48.404;9.498;2023-08-21T18:33:08;25.40;1.00
8402;DHT22;4238;48.404;9.498;2023-08-21T18:35:35;25.20;1.00
8402;DHT22;4238;48.404;9.498;2023-08-21T18:38:04;25.10;2.30
8402;DHT22;4238;48.404;9.498;2023-08-21T18:40:31;25.20;1.00
8402;DHT22;4238;48.404;9.498;2023-08-21T18:42:58;25.10;2.80
8402;DHT22;4238;48.404;9.498;2023-08-21T18:45:25;25.00;11.50
8402;DHT22;4238;48.404;9.498;2023-08-21T18:47:54;24.90;19.70
8402;DHT22;4238;48.404;9.498;2023-08-21T18:50:32;24.90;11.60
8402;DHT22;4238;48.404;9.498;2023-08-21T18:53:00;24.80;16.50
8402;DHT22;4238;48.404;9.498;2023-08-21T18:55:27;24.50;23.40
8402;DHT22;4238;48.404;9.498;2023-08-21T18:57:54;24.40;29.80
8402;DHT22;4238;48.404;9.498;2023-08-21T19:00:20;24.30;38.10
8402;DHT22;4238;48.404;9.498;2023-08-21T19:02:47;24.10;43.60
8402;DHT22;4238;48.404;9.498;2023-08-21T19:05:16;24.10;46.10
8402;DHT22;4238;48.404;9.498;2023-08-21T19:07:42;24.00;45.80
8402;DHT22;4238;48.404;9.498;2023-08-21T19:10:09;23.90;43.00
8402;DHT22;4238;48.404;9.498;2023-08-21T19:12:36;23.90;41.90
8402;DHT22;4238;48.404;9.498;2023-08-21T19:15:04;23.90;49.30
8402;DHT22;4238;48.404;9.498;2023-08-21T19:17:31;24.00;41.10
8402;DHT22;4238;48.404;9.498;2023-08-21T19:19:58;24.20;27.90
8402;DHT22;4238;48.404;9.498;2023-08-21T19:22:26;24.30;27.00
8402;DHT22;4238;48.404;9.498;2023-08-21T19:24:53;24.20;34.60
8402;DHT22;4238;48.404;9.498;2023-08-21T19:27:19;23.90;46.10
8402;DHT22;4238;48.404;9.498;2023-08-21T19:29:46;23.80;53.00
8402;DHT22;4238;48.404;9.498;2023-08-21T19:32:13;23.70;58.00
8402;DHT22;4238;48.404;9.498;2023-08-21T19:34:40;23.60;55.80
8402;DHT22;4238;48.404;9.498;2023-08-21T19:37:07;23.70;50.70
8402;DHT22;4238;48.404;9.498;2023-08-21T19:39:36;23.60;54.70
8402;DHT22;4238;48.404;9.498;2023-08-21T19:42:04;23.40;63.40
8402;DHT22;4238;48.404;9.498;2023-08-21T19:44:31;23.40;63.40
8402;DHT22;4238;48.404;9.498;2023-08-21T19:46:59;23.30;73.40
8402;DHT22;4238;48.404;9.498;2023-08-21T19:49:26;23.10;75.50
8402;DHT22;4238;48.404;9.498;2023-08-21T19:51:56;23.00;82.80
8402;DHT22;4238;48.404;9.498;2023-08-21T19:54:23;23.00;84.80
8402;DHT22;4238;48.404;9.498;2023-08-21T19:56:51;22.90;88.90
8402;DHT22;4238;48.404;9.498;2023-08-21T19:59:18;22.90;90.60
8402;DHT22;4238;48.404;9.498;2023-08-21T20:01:45;22.80;93.00
8402;DHT22;4238;48.404;9.498;2023-08-21T20:04:14;22.90;91.30
8402;DHT22;4238;48.404;9.498;2023-08-21T20:06:41;22.90;86.00
8402;DHT22;4238;48.404;9.498;2023-08-21T20:09:07;23.10;81.90
8402;DHT22;4238;48.404;9.498;2023-08-21T20:11:36;23.10;72.60
8402;DHT22;4238;48.404;9.498;2023-08-21T20:14:04;23.10;73.70
8402;DHT22;4238;48.404;9.498;2023-08-21T20:16:31;23.00;74.70